Accueil
METAR-TAF:

METAR-TAF

Aéroports :

Aéroport de Bastia-Poretta

Bastia, France

latitude: 42-33N, longitude: 009-29E, altitude: 8 m

Observation

Le bulletin a été fait il y a 27 minutes, à 00:00 UTC
Vent 3 kt de sud/sud-ouest
Température 20°C
Humidité 78%
Pression 1017 hPa
Visibilité 10 km ou plus
pas de nuages en-dessous de 1500 mètres et pas de cumulonimbus.

METAR: LFKB 210000Z AUTO 21003KT CAVOK 20/16 Q1017 NOSIG

Heure: 02:27 (00:27 UTC)

Prévision

Le bulletin a été fait il y a 4 heures et 27 minutes, à 20:00 UTC
Prévision valable du 20 à 21 UTC au 21 à 21 UTC
Vent 3 kt de sud-ouest
Visibilité 10 km ou plus
pas de nuages en-dessous de 1500 mètres et pas de cumulonimbus.
Evoluant progressivement
du 21 à 07 UTC au 21 à 09 UTC
Vent 10 kt de est/sud-est

TAF: LFKB 202000Z 2021/2121 23003KT CAVOK BECMG 2107/2109 12010KT TX29/2112Z TN19/2103Z

Observations et prévisions météorologiques de plus de 4000 aéroports (messages METAR et TAF).

Les stations disponibles sont représentées par des disques jaunes et rouges sur la carte.

Passer la souris dessus pour voir le nom de la station.

Cliquer dessus pour voir les observations et prévisions météorologiques.

Pour changer de carte: cliquez sur les boutons verts avec une croix noire pour zoomer, sur le bouton vert avec un tiret pour effectuer un zoom arrière, ou sur les flèches vertes pour les cartes adjacentes.


METAR-TAF: